ADDS METAR Data INFO
IDs: Format: Raw Decoded Include TAF

Data at: 1857 UTC 22 Sep 2017

METAR for:LFJL (Metz/Lorraine Arpt, --, FR)
Text:LFJL 221830Z AUTO 31005KT 9999 NCD 17/10 Q1022 NOSIG
Temperature: 17.0°C ( 63°F)
Dewpoint: 10.0°C ( 50°F) [RH = 63%]
Pressure (altimeter):30.18 inches Hg (1022.0 mb)
Winds:from the NW (310 degrees) at 6 MPH (5 knots; 2.6 m/s)
Visibility:6 or more sm (10+ km)
Ceiling:at least 12,000 feet AGL
Clouds:sky clear below 12,000 feet AGL

TAF for:LFJL (Metz/Lorraine Arpt, --, FR) issued at 1700 UTC 22 Sep 2017
Text:TAF LFJL 221700Z 2218/2318 VRB03KT CAVOK
Forecast period:1800 UTC 22 September 2017 to 1800 UTC 23 September 2017
Forecast type:FROM: standard forecast or significant change
Winds:variable direction winds at 3 MPH (3 knots; 1.5 m/s)
Visibility:6 or more sm (10+ km)
Clouds:missing
Weather:NSW (no significant weather)
Text:PROB40 2303/2307 4000 BR
Forecast period:0300 to 0700 UTC 23 September 2017
Forecast type:PROBABLE: 40 percent likelihood of the following during this time
Visibility: 2.49 sm ( 4.01 km)
Clouds:missing
Weather:BR (mist)